MDT,Max TemperatureF,Mean TemperatureF,Min TemperatureF,Max Dew PointF,MeanDew PointF,Min DewpointF,Max Humidity, Mean Humidity, Min Humidity, Max Sea Level PressureIn, Mean Sea Level PressureIn, Min Sea Level PressureIn, Max VisibilityMiles, Mean VisibilityMiles, Min VisibilityMiles, Max Wind SpeedMPH, Mean Wind SpeedMPH, Max Gust SpeedMPH,PrecipitationIn, CloudCover, Events, WindDirDegrees
2013-3-1,48,30,11,18,13,5,76,51,26,30.48,30.34,30.25,10,10,10,24,10,32,0.00,1,,344
2013-3-2,51,32,12,22,17,8,88,57,26,30.52,30.38,30.22,10,10,10,12,5,13,0.00,0,,248
2013-3-3,57,36,15,24,18,11,92,54,16,30.23,29.94,29.74,10,10,3,30,9,36,0.00,1,,244
2013-3-4,50,36,21,32,22,7,82,58,34,30.10,29.83,29.70,10,10,4,30,10,37,T,3,,298
2013-3-5,49,28,6,18,6,-1,91,52,13,30.42,30.29,30.19,10,10,10,14,4,18,0.00,0,,222
2013-3-6,57,37,16,18,15,11,84,52,20,30.25,30.08,29.92,10,10,10,23,7,29,0.00,0,,211
2013-3-7,59,38,17,18,10,3,68,40,11,30.11,29.99,29.92,10,10,10,24,7,30,0.00,0,,213
2013-3-8,54,36,18,32,23,13,100,60,20,29.99,29.81,29.59,10,9,2,30,12,39,0.01,4,Snow,189
2013-3-9,33,26,18,28,23,13,100,75,50,30.03,29.78,29.59,10,3,0,22,6,28,0.28,7,Fog-Snow,178
2013-3-10,32,19,5,21,15,7,100,77,53,30.31,30.10,29.95,10,7,0,9,3,10,0.01,4,Fog-Snow,221
2013-3-11,46,28,9,23,16,7,92,65,37,30.31,30.18,30.05,10,10,10,12,4,13,0.00,0,,304
2013-3-12,53,37,20,26,22,19,92,60,28,30.28,30.20,30.13,10,10,10,9,4,15,0.00,0,,241
2013-3-13,58,39,19,27,21,17,96,59,21,30.40,30.31,30.25,10,10,10,14,5,18,0.00,0,,319
2013-3-14,64,44,24,25,17,10,88,51,14,30.46,30.29,30.21,10,10,10,13,5,16,0.00,0,,289
2013-3-15,70,45,19,22,17,11,91,51,10,30.26,30.09,29.93,10,10,6,28,7,33,0.00,0,,224
2013-3-16,57,39,21,37,25,16,100,62,24,29.96,29.90,29.76,10,9,2,32,6,43,0.02,3,Rain-Thunderstorm,316
2013-3-17,56,39,21,34,22,12,100,60,20,29.90,29.79,29.59,10,8,0,37,11,45,T,2,Fog-Rain,242
2013-3-18,52,34,15,15,5,-8,80,45,9,30.02,29.91,29.80,10,10,10,33,8,40,0.00,0,,318
2013-3-19,49,33,16,12,6,-1,67,42,16,30.21,30.08,29.99,10,10,10,17,7,26,0.00,1,,358
2013-3-20,55,32,8,24,13,3,80,48,16,30.28,30.09,29.83,10,10,10,30,7,37,0.00,3,,232
2013-3-21,56,41,25,27,20,10,78,50,22,29.81,29.67,29.51,10,9,2,33,11,47,0.00,4,,338
2013-3-22,50,29,8,15,6,-3,80,48,15,29.86,29.71,29.62,10,9,1,39,11,49,0.00,1,,256
2013-3-23,33,19,5,14,7,1,84,56,28,30.24,29.82,29.62,10,8,0,30,13,36,0.02,5,Snow,33
2013-3-24,32,14,-4,3,-2,-7,95,59,22,30.28,30.16,29.96,10,10,10,26,7,33,0.00,3,,81
2013-3-25,41,20,-2,1,-4,-7,72,43,14,30.29,30.22,30.14,10,10,10,16,4,20,0.00,0,,111
2013-3-26,58,33,7,11,6,-1,69,41,13,30.25,30.09,29.94,10,10,10,30,10,40,0.00,2,,235
2013-3-27,62,43,24,19,11,4,63,37,10,30.05,29.97,29.86,10,10,10,22,7,30,0.00,1,,241
2013-3-28,64,45,25,17,13,6,60,36,11,30.10,30.03,29.95,10,10,10,23,5,40,0.00,2,,203
2013-3-29,59,42,24,23,18,12,68,44,19,30.15,30.10,30.02,10,10,10,22,6,29,T,2,Rain,283
2013-3-30,62,39,16,30,20,12,80,50,19,30.26,30.11,30.00,10,10,9,29,5,35,T,4,Rain,26
2013-3-31,63,43,23,30,19,6,88,51,14,30.13,30.01,29.93,10,10,10,20,5,24,0.00,2,,233